Latest Weather Observations for Lockhart River

IDQ60801

Issued at 2:32 pm EST Tuesday 3 March 2015 (issued every 30 minutes, with the page automatically refreshed every 10 minutes)

About weather observations | Map of weather stations | Latest weather observations for QLD | Other Formats
Station Details ID: 028008 Name: LOCKHART RIVER AIRPORT Lat: -12.79 Lon: 143.30 Height: 18.5 m
Data from the previous 72 hours. | See also: Recent months at Lockhart River
Date/Time
EST
Temp
°C
App
Temp
°C
Dew
Point
Rel
Hum
%
Delta-T
°C
Wind Press
QNH
hPa
Press
MSL
hPa
Rain
since 9 am
mm
Dir
 
Spd
km/h
Gust
km/h
Spd
kts
Gust
kts
03/02:30pm 30.9 33.7 24.3 68 4.6 E 17 24 9 13 1007.1 - 0.0
03/02:00pm 30.7 33.1 23.6 66 4.9 ENE 17 24 9 13 1007.4 - 0.0
03/01:30pm 31.2 34.9 25.1 70 4.3 E 15 20 8 11 1007.6 - 0.0
03/01:00pm 30.8 33.2 23.7 66 4.9 E 17 26 9 14 1007.9 - 0.0
03/12:30pm 30.5 32.5 22.9 64 5.2 E 17 24 9 13 1008.3 - 0.0
03/12:00pm 30.3 32.5 23.2 65 4.9 E 17 26 9 14 1008.8 1008.7 0.0
03/11:30am 30.3 33.0 23.5 67 4.7 ENE 15 20 8 11 1009.1 - 0.0
03/11:00am 30.6 33.4 24.3 69 4.4 ESE 17 28 9 15 1009.5 - 0.0
03/10:30am 30.3 33.2 24.4 70 4.1 E 17 22 9 12 1009.7 - 0.0
03/10:00am 29.8 33.2 24.0 71 4.0 ESE 13 19 7 10 1009.8 - 0.0
03/09:36am 29.2 32.8 24.3 75 3.4 ESE 13 20 7 11 1009.9 - 0.0
03/09:30am 29.8 34.4 24.7 74 3.6 ESE 9 19 5 10 1009.8 - 0.0
03/09:20am 29.1 35.1 25.5 81 2.5 E 4 11 2 6 1009.8 - 0.0
03/09:13am 28.7 34.3 24.9 80 2.7 NE 4 7 2 4 1009.8 - 0.0
03/09:00am 28.0 34.2 25.2 85 2.0 NW 2 6 1 3 1009.7 1009.6 0.0
03/08:50am 27.5 32.8 25.3 88 1.5 NNW 7 9 4 5 1009.7 - 0.0
03/08:30am 27.4 33.2 25.2 88 1.5 NW 4 7 2 4 1009.7 - 0.0
03/08:00am 26.0 32.5 25.1 95 0.6 CALM 0 0 0 0 1009.4 - 0.0
03/07:30am 24.8 30.8 24.3 97 0.3 CALM 0 0 0 0 1009.0 - 0.0
03/07:00am 24.0 29.7 23.8 99 0.1 CALM 0 0 0 0 1008.6 - 0.0
03/06:30am 23.8 29.0 23.5 98 0.2 N 2 6 1 3 1008.3 - 0.0
03/06:00am 24.0 29.7 23.7 98 0.2 CALM 0 0 0 0 1008.0 1007.9 0.0
03/05:30am 24.2 30.0 23.9 98 0.2 CALM 0 0 0 0 1007.7 - 0.0
03/05:00am 24.4 30.3 24.1 98 0.2 CALM 0 0 0 0 1007.3 - 0.0
03/04:30am 24.5 30.5 24.2 98 0.2 CALM 0 0 0 0 1007.1 - 0.0
03/04:00am 24.4 30.3 24.1 98 0.2 CALM 0 0 0 0 1006.9 - 0.0
03/03:58am 24.4 30.3 24.1 98 0.2 CALM 0 0 0 0 1006.9 - 0.0
03/03:48am 24.3 30.1 24.0 98 0.2 CALM 0 0 0 0 1007.0 - 0.0
03/03:42am 24.2 30.0 23.9 98 0.2 CALM 0 0 0 0 1007.1 - 0.0
03/03:30am 24.2 30.0 23.9 98 0.2 CALM 0 0 0 0 1007.0 - 0.0
03/03:00am 24.5 30.5 24.2 98 0.2 CALM 0 0 0 0 1007.1 1007.0 0.0
03/02:49am 24.3 30.1 24.0 98 0.2 CALM 0 0 0 0 1007.2 - 0.0
03/02:30am 24.5 30.5 24.2 98 0.2 CALM 0 0 0 0 1007.2 - 0.0
03/02:00am 24.5 30.5 24.3 99 0.1 CALM 0 0 0 0 1007.7 - 0.0
03/01:58am 24.4 30.4 24.2 99 0.1 CALM 0 0 0 0 1007.7 - 0.0
03/01:30am 24.2 29.6 23.9 98 0.2 NW 2 7 1 4 1007.9 - 0.0
03/01:00am 24.3 30.0 23.8 97 0.3 CALM 0 0 0 0 1008.1 - 0.0
03/12:30am 24.6 30.5 24.1 97 0.3 CALM 0 0 0 0 1008.4 - 0.0
03/12:00am 24.6 30.5 24.1 97 0.3 CALM 0 0 0 0 1008.6 1008.5 0.0
 
Date/Time
EST
Temp
°C
App
Temp
°C
Dew
Point
Rel
Hum
%
Delta-T
°C
Wind Press
QNH
hPa
Press
MSL
hPa
Rain
since 9 am
mm
Dir
 
Spd
km/h
Gust
km/h
Spd
kts
Gust
kts
02/11:30pm 24.6 30.5 24.1 97 0.3 CALM 0 0 0 0 1008.5 - 0.0
02/11:00pm 24.7 30.7 24.2 97 0.3 CALM 0 0 0 0 1008.3 - 0.0
02/10:30pm 25.1 31.2 24.4 96 0.5 CALM 0 0 0 0 1008.2 - 0.0
02/10:00pm 25.2 31.3 24.5 96 0.5 CALM 0 0 0 0 1008.1 - 0.0
02/09:30pm 25.4 31.5 24.4 94 0.7 CALM 0 0 0 0 1008.1 - 0.0
02/09:00pm 25.5 30.5 24.5 94 0.7 NW 6 7 3 4 1007.8 1007.7 0.0
02/08:30pm 26.1 32.4 24.7 92 1.0 CALM 0 0 0 0 1007.4 - 0.0
02/08:00pm 26.8 32.8 24.3 86 1.7 CALM 0 0 0 0 1007.1 - 0.0
02/07:30pm 27.1 32.0 24.4 85 1.9 NNE 6 9 3 5 1006.6 - 0.0
02/07:00pm 27.6 32.4 24.4 83 2.2 NE 7 9 4 5 1006.5 - 0.0
02/06:30pm 28.4 32.4 23.8 76 3.2 NE 9 15 5 8 1006.2 - 0.0
02/06:00pm 29.2 32.6 23.4 71 4.0 ENE 11 17 6 9 1005.8 1005.7 0.0
02/05:30pm 29.7 33.1 23.4 69 4.3 E 11 19 6 10 1005.6 - 0.0
02/05:00pm 30.1 32.5 23.0 65 4.9 E 15 20 8 11 1005.5 - 0.0
02/04:30pm 30.4 32.9 23.8 68 4.6 ENE 17 24 9 13 1005.3 - 0.0
02/04:00pm 30.3 32.2 23.5 67 4.7 E 19 26 10 14 1005.1 - 0.0
02/03:30pm 30.5 32.6 23.7 67 4.7 E 19 28 10 15 1005.2 - 0.0
02/03:00pm 30.5 32.8 24.4 70 4.3 E 20 28 11 15 1005.4 1005.3 0.0
02/02:30pm 31.2 34.6 25.3 71 4.2 E 17 28 9 15 1005.5 - 0.0
02/02:00pm 31.4 34.5 24.8 68 4.6 E 17 28 9 15 1005.6 - 0.0
02/01:30pm 31.2 34.6 24.6 68 4.6 NE 15 20 8 11 1005.9 - 0.0
02/01:00pm 31.1 35.0 25.4 71 4.0 NE 15 22 8 12 1006.7 - 0.0
02/12:30pm 31.0 35.6 26.5 77 3.2 ENE 15 22 8 12 1007.0 - 0.0
02/12:00pm 30.5 35.4 25.3 74 3.7 ESE 9 19 5 10 1007.5 1007.4 0.0
02/11:30am 30.2 36.2 26.4 80 2.7 E 7 11 4 6 1008.0 - 0.0
02/11:00am 29.6 34.9 24.9 76 3.3 ENE 6 11 3 6 1008.5 - 0.0
02/10:30am 29.6 34.7 24.7 75 3.4 E 6 11 3 6 1008.8 - 0.0
02/10:00am 29.3 34.5 24.8 77 3.1 ENE 6 9 3 5 1009.0 - 0.0
02/09:36am 28.6 33.8 24.8 80 2.7 N 6 11 3 6 1008.9 - 0.0
02/09:30am 28.3 33.9 24.9 82 2.4 NNW 4 11 2 6 1008.9 - 0.0
02/09:00am 27.7 34.5 25.5 88 1.6 CALM 0 0 0 0 1008.8 1008.7 0.0
02/08:55am 27.7 34.6 25.7 89 1.4 CALM 0 0 0 0 1008.8 - 0.0
02/08:30am 26.8 32.6 25.2 91 1.1 WNW 4 7 2 4 1008.6 - 0.0
02/08:00am 25.6 30.7 24.9 96 0.5 WNW 7 9 4 5 1008.3 - 0.0
02/07:30am 24.6 30.7 24.4 99 0.1 CALM 0 0 0 0 1008.1 - 0.0
02/07:00am 23.9 29.6 23.7 99 0.1 CALM 0 0 0 0 1007.7 - 0.0
02/06:30am 24.0 29.7 23.8 99 0.1 CALM 0 0 0 0 1007.5 - 0.0
02/06:00am 24.0 29.7 23.8 99 0.1 CALM 0 0 0 0 1007.3 1007.2 0.0
02/05:30am 24.3 30.2 24.1 99 0.1 CALM 0 0 0 0 1007.1 - 0.0
02/05:14am 24.4 30.4 24.2 99 0.1 CALM 0 0 0 0 1007.2 - 0.0
02/05:00am 24.5 30.5 24.3 99 0.1 CALM 0 0 0 0 1007.3 - 0.0
02/04:33am 24.3 30.2 24.1 99 0.1 CALM 0 0 0 0 1007.0 - 0.0
02/04:30am 24.2 30.0 23.9 98 0.2 CALM 0 0 0 0 1006.9 - 0.0
02/04:00am 24.1 29.8 23.8 98 0.2 CALM 0 0 0 0 1006.7 - 0.0
02/03:30am 24.2 30.0 23.9 98 0.2 CALM 0 0 0 0 1006.8 - 0.0
02/03:09am 24.3 30.1 24.0 98 0.2 CALM 0 0 0 0 1006.9 - 0.0
02/03:00am 24.3 29.0 24.0 98 0.2 NW 6 9 3 5 1006.9 1006.8 0.0
02/02:38am 24.6 30.6 24.3 98 0.2 CALM 0 0 0 0 1007.1 - 0.0
02/02:30am 24.6 30.6 24.3 98 0.2 CALM 0 0 0 0 1007.0 - 0.0
02/02:00am 24.4 29.2 24.1 98 0.2 WNW 6 7 3 4 1007.6 - 0.0
02/01:47am 24.5 29.3 24.2 98 0.2 WNW 6 7 3 4 1007.7 - 0.0
02/01:30am 24.8 30.9 24.5 98 0.2 CALM 0 0 0 0 1008.0 - 0.0
02/01:27am 24.8 30.9 24.5 98 0.2 CALM 0 0 0 0 1008.1 - 0.0
02/01:00am 24.8 30.8 24.3 97 0.3 CALM 0 0 0 0 1008.1 - 0.0
02/12:30am 24.9 31.0 24.4 97 0.3 CALM 0 0 0 0 1008.3 - 0.0
02/12:00am 25.2 31.5 24.7 97 0.3 CALM 0 0 0 0 1008.4 1008.3 0.0
 
Date/Time
EST
Temp
°C
App
Temp
°C
Dew
Point
Rel
Hum
%
Delta-T
°C
Wind Press
QNH
hPa
Press
MSL
hPa
Rain
since 9 am
mm
Dir
 
Spd
km/h
Gust
km/h
Spd
kts
Gust
kts
01/11:30pm 25.1 31.3 24.6 97 0.3 CALM 0 0 0 0 1008.5 - 0.0
01/11:00pm 25.2 31.3 24.5 96 0.5 CALM 0 0 0 0 1008.5 - 0.0
01/10:30pm 25.5 31.8 24.8 96 0.5 CALM 0 0 0 0 1008.4 - 0.0
01/10:00pm 25.7 32.2 25.0 96 0.5 CALM 0 0 0 0 1008.3 - 0.0
01/09:30pm 25.7 32.2 25.0 96 0.5 CALM 0 0 0 0 1008.2 - 0.0
01/09:00pm 25.9 32.4 25.0 95 0.6 CALM 0 0 0 0 1007.7 1007.6 0.0
01/08:30pm 26.2 32.7 25.0 93 0.8 CALM 0 6 0 3 1007.2 - 0.0
01/08:00pm 26.7 32.3 24.9 90 1.3 ENE 4 7 2 4 1007.1 - 0.0
01/07:30pm 27.5 32.8 24.9 86 1.8 NE 6 9 3 5 1007.0 - 0.0
01/07:00pm 27.9 32.7 24.5 82 2.4 NNE 7 13 4 7 1006.7 - 0.0
01/06:30pm 28.5 32.7 24.1 77 3.0 NE 9 13 5 7 1006.0 - 0.0
01/06:00pm 29.4 33.2 24.7 76 3.3 NNE 13 19 7 10 1005.6 1005.5 0.0
01/05:30pm 29.9 34.3 25.0 75 3.4 ENE 11 19 6 10 1005.1 - 0.0
01/05:00pm 30.5 34.2 24.6 70 4.1 ENE 13 19 7 10 1005.0 - 0.0
01/04:30pm 30.7 34.5 25.3 73 3.8 ENE 15 24 8 13 1004.8 - 0.0
01/04:00pm 30.8 35.3 25.8 74 3.6 ENE 13 19 7 10 1004.7 - 0.0
01/03:30pm 30.4 33.2 25.0 73 3.8 E 19 24 10 13 1004.8 - 0.0
01/03:00pm 30.7 33.8 24.1 68 4.6 NE 15 22 8 12 1005.0 1004.9 0.0
01/02:30pm 31.3 35.5 24.7 68 4.6 ENE 11 19 6 10 1005.2 - 0.0
01/02:00pm 30.9 35.1 24.8 70 4.3 NNE 11 17 6 9 1005.5 - 0.0
01/01:30pm 31.3 34.5 23.7 64 5.3 N 13 20 7 11 1006.1 - 0.0
01/01:00pm 29.9 33.8 24.3 72 3.9 NW 11 15 6 8 1006.7 - 0.0
01/12:30pm 31.5 34.8 23.9 64 5.3 NNE 13 20 7 11 1007.0 - 0.0
01/12:00pm 30.7 34.8 24.6 70 4.3 ENE 11 17 6 9 1007.6 1007.5 0.0
01/11:30am 29.9 34.1 25.4 77 3.2 E 13 17 7 9 1007.9 - 0.0
01/11:00am 30.2 33.8 24.4 71 4.0 NNE 13 19 7 10 1008.0 - 0.0
01/10:30am 29.5 32.6 24.1 72 3.7 NNE 15 19 8 10 1008.4 - 0.0
01/10:00am 28.7 33.5 25.1 81 2.5 N 9 13 5 7 1008.7 - 0.0
01/09:30am 28.6 32.7 24.6 79 2.8 N 11 17 6 9 1008.8 - 0.0
01/09:00am 27.7 33.2 24.7 84 2.1 WNW 4 7 2 4 1009.0 1008.9 2.0
01/08:30am 26.5 32.2 23.8 85 1.9 CALM 0 6 0 3 1008.5 - 2.0
01/08:00am 25.3 31.3 24.3 94 0.7 CALM 0 6 0 3 1008.0 - 2.0
01/07:30am 24.0 29.7 23.7 98 0.2 CALM 0 0 0 0 1007.7 - 2.0
01/07:00am 22.9 28.0 22.7 99 0.1 CALM 0 0 0 0 1007.3 - 2.0
01/06:30am 22.7 27.7 22.5 99 0.1 CALM 0 0 0 0 1007.1 - 2.0
01/06:00am 22.9 28.0 22.7 99 0.1 CALM 0 0 0 0 1006.9 1006.8 2.0
01/05:30am 23.0 28.2 22.8 99 0.1 CALM 0 0 0 0 1006.9 - 2.0
01/05:00am 23.1 28.3 22.9 99 0.1 CALM 0 0 0 0 1006.6 - 2.0
01/04:56am 23.1 28.3 22.9 99 0.1 CALM 0 0 0 0 1006.6 - 2.0
01/04:30am 23.1 28.3 22.9 99 0.1 CALM 0 0 0 0 1006.4 - 2.0
01/04:05am 23.2 28.0 22.9 98 0.2 N 2 7 1 4 1006.2 - 2.0
01/04:00am 23.2 27.3 22.9 98 0.2 NNW 6 7 3 4 1006.1 - 2.0
01/03:30am 23.5 28.9 23.2 98 0.2 CALM 0 0 0 0 1005.8 - 2.0
01/03:00am 23.6 29.0 23.3 98 0.2 CALM 0 0 0 0 1006.0 1005.9 2.0
01/02:30am 23.8 29.2 23.3 97 0.3 CALM 0 0 0 0 1006.4 - 2.0
01/02:00am 24.1 29.7 23.6 97 0.3 CALM 0 0 0 0 1006.9 - 2.0
01/01:30am 23.9 28.6 23.4 97 0.3 SW 4 6 2 3 1007.1 - 2.0
01/01:00am 24.2 28.6 23.5 96 0.5 WNW 6 7 3 4 1007.4 - 2.0
01/12:30am 24.4 29.7 23.7 96 0.5 NNW 2 6 1 3 1007.6 - 2.0
01/12:00am 24.6 30.4 23.9 96 0.5 CALM 0 0 0 0 1008.0 1007.9 2.0
 
Date/Time
EST
Temp
°C
App
Temp
°C
Dew
Point
Rel
Hum
%
Delta-T
°C
Wind Press
QNH
hPa
Press
MSL
hPa
Rain
since 9 am
mm
Dir
 
Spd
km/h
Gust
km/h
Spd
kts
Gust
kts
28/11:30pm 24.8 30.6 23.9 95 0.6 CALM 0 0 0 0 1008.0 - 2.0
28/11:00pm 25.1 30.9 23.9 93 0.8 CALM 0 0 0 0 1007.9 - 2.0
28/10:30pm 25.3 31.0 23.7 91 1.1 CALM 0 0 0 0 1008.2 - 2.0
28/10:00pm 25.7 30.2 23.6 88 1.4 NW 6 7 3 4 1008.0 - 2.0
28/09:30pm 25.7 30.2 23.9 90 1.2 N 7 11 4 6 1007.7 - 2.0
28/09:00pm 25.9 31.0 24.1 90 1.2 WNW 4 7 2 4 1007.8 1007.7 2.0
28/08:30pm 25.9 30.6 24.3 91 1.1 N 7 9 4 5 1007.4 - 2.0
28/08:00pm 26.0 30.6 24.2 90 1.2 N 7 11 4 6 1006.8 - 2.0
28/07:30pm 26.5 32.1 24.2 87 1.6 NNW 2 7 1 4 1006.2 - 2.0
28/07:00pm 27.0 31.4 24.5 86 1.7 NW 9 11 5 6 1006.0 - 2.0
28/06:30pm 27.4 32.1 24.0 82 2.3 NW 6 9 3 5 1005.7 - 2.0
28/06:00pm 28.0 32.9 24.4 81 2.5 N 6 9 3 5 1005.2 1005.1 2.0
28/05:30pm 28.6 31.9 23.9 75 3.2 N 13 17 7 9 1004.9 - 2.0
28/05:00pm 29.6 34.4 25.1 77 3.2 NNE 9 17 5 9 1004.7 - 2.0
28/04:30pm 30.8 35.4 25.4 73 3.8 N 11 15 6 8 1004.5 - 2.0
28/04:00pm 29.7 34.3 25.9 80 2.7 N 13 19 7 10 1004.3 - 2.0
28/03:30pm 30.2 34.3 24.6 72 3.9 NE 11 19 6 10 1004.5 - 2.0
28/03:00pm 28.3 32.7 25.1 83 2.2 NNE 11 15 6 8 1004.7 1004.6 2.0

Other Formats:

Comma delimited format used in spreadsheet applications
http://www.bom.gov.au/fwo/IDQ60801/IDQ60801.94186.axf

JavaScript Object Notation format (JSON) in row-major order
http://www.bom.gov.au/fwo/IDQ60801/IDQ60801.94186.json